createdAt,value
2019-01-06T00:00:20.699Z,2.70
2019-01-06T00:02:55.391Z,2.57
2019-01-06T00:05:29.129Z,2.57
2019-01-06T00:08:02.781Z,2.40
2019-01-06T00:11:37.298Z,3.03
2019-01-06T00:14:11.119Z,3.60
2019-01-06T00:16:50.730Z,3.23
2019-01-06T00:19:27.288Z,2.33
2019-01-06T00:22:59.598Z,2.83
2019-01-06T00:25:33.489Z,2.47
2019-01-06T00:28:09.030Z,2.67
2019-01-06T00:31:01.962Z,2.57
2019-01-06T00:33:35.400Z,2.97
2019-01-06T00:37:07.788Z,2.50
2019-01-06T00:41:49.129Z,2.30
2019-01-06T00:44:36.984Z,2.67
2019-01-06T00:47:13.511Z,2.67
2019-01-06T00:49:47.266Z,2.63
2019-01-06T00:52:20.942Z,2.30
2019-01-06T00:58:12.812Z,2.27
2019-01-06T01:00:47.446Z,2.23
2019-01-06T01:04:18.841Z,2.80
2019-01-06T01:07:09.432Z,2.60
2019-01-06T01:09:43.138Z,3.00
2019-01-06T01:12:17.533Z,2.60
2019-01-06T01:14:51.929Z,2.33
2019-01-06T01:17:31.436Z,2.90
2019-01-06T01:20:04.980Z,2.63
2019-01-06T01:22:39.556Z,2.67
2019-01-06T01:25:13.224Z,3.73
2019-01-06T01:27:46.738Z,3.40
2019-01-06T01:30:29.350Z,2.73
2019-01-06T01:34:01.557Z,3.47
2019-01-06T01:36:39.082Z,2.40
2019-01-06T01:39:15.701Z,3.53
2019-01-06T01:43:55.104Z,2.73
2019-01-06T01:46:27.736Z,2.70
2019-01-06T01:49:01.374Z,2.70
2019-01-06T01:51:37.998Z,3.00
2019-01-06T01:54:10.643Z,2.60
2019-01-06T01:56:48.084Z,2.90
2019-01-06T01:59:21.817Z,3.03
2019-01-06T02:01:55.593Z,2.80
2019-01-06T02:04:29.314Z,2.90
2019-01-06T02:07:02.994Z,2.70
2019-01-06T02:09:38.384Z,2.83
2019-01-06T02:12:25.956Z,2.27
2019-01-06T02:14:59.409Z,4.23
2019-01-06T02:18:34.973Z,3.07
2019-01-06T02:21:08.782Z,3.13
2019-01-06T02:23:42.648Z,2.43
2019-01-06T02:26:16.354Z,3.07
2019-01-06T02:28:50.170Z,3.37
2019-01-06T02:31:27.733Z,2.40
2019-01-06T02:34:01.267Z,2.90
2019-01-06T02:37:32.779Z,2.80
2019-01-06T02:40:08.396Z,2.30
2019-01-06T02:42:42.313Z,2.50
2019-01-06T02:45:16.186Z,2.70
2019-01-06T02:47:50.001Z,2.50
2019-01-06T02:51:25.424Z,2.43
2019-01-06T02:54:00.918Z,3.20
2019-01-06T02:57:38.356Z,2.50
2019-01-06T03:00:12.029Z,2.70
2019-01-06T03:04:48.330Z,2.70
2019-01-06T03:07:57.413Z,2.87
2019-01-06T03:10:31.290Z,2.70
2019-01-06T03:15:51.427Z,2.63
2019-01-06T03:18:27.988Z,2.30
2019-01-06T03:22:01.356Z,2.73
2019-01-06T03:24:35.978Z,2.70
2019-01-06T03:27:10.520Z,2.87
2019-01-06T03:29:44.288Z,2.60
2019-01-06T03:32:17.722Z,2.30
2019-01-06T03:34:58.426Z,2.47
2019-01-06T03:38:03.384Z,2.67
2019-01-06T03:41:37.050Z,2.40
2019-01-06T03:44:19.831Z,2.80
2019-01-06T03:46:56.481Z,1.90
2019-01-06T03:51:38.032Z,3.00
2019-01-06T03:56:15.298Z,2.53
2019-01-06T03:58:48.754Z,2.40
2019-01-06T04:01:22.725Z,2.40
2019-01-06T04:03:56.326Z,2.90
2019-01-06T04:06:29.842Z,2.90
2019-01-06T04:09:03.665Z,2.67
2019-01-06T04:11:37.553Z,3.37
2019-01-06T04:14:17.079Z,2.73
2019-01-06T04:16:54.691Z,2.77
2019-01-06T04:22:22.189Z,2.53
2019-01-06T04:25:57.906Z,3.20
2019-01-06T04:30:34.238Z,3.80
2019-01-06T04:33:07.851Z,3.80
2019-01-06T04:35:41.706Z,2.60
2019-01-06T04:38:50.710Z,2.67
2019-01-06T04:41:26.326Z,3.07
2019-01-06T04:44:00.832Z,2.17
2019-01-06T04:46:39.358Z,2.17
2019-01-06T04:49:13.006Z,2.33
2019-01-06T04:53:55.632Z,3.23
2019-01-06T04:56:29.279Z,2.57
2019-01-06T04:59:03.164Z,2.87
2019-01-06T05:01:37.101Z,3.10
2019-01-06T05:04:25.740Z,2.97
2019-01-06T05:07:03.464Z,2.77
2019-01-06T05:09:37.938Z,2.00
2019-01-06T05:12:12.524Z,2.40
2019-01-06T05:15:48.961Z,2.37
2019-01-06T05:18:22.717Z,2.10
2019-01-06T05:24:43.025Z,2.70
2019-01-06T05:28:16.502Z,2.40
2019-01-06T05:31:48.925Z,2.73
2019-01-06T05:36:27.929Z,2.30
2019-01-06T05:39:00.561Z,2.40
2019-01-06T05:41:33.193Z,1.90
2019-01-06T05:44:05.844Z,2.73
2019-01-06T05:46:39.328Z,1.70
2019-01-06T05:49:18.957Z,2.43
2019-01-06T05:51:54.409Z,1.70
2019-01-06T05:55:27.751Z,2.40
2019-01-06T06:00:06.187Z,2.20
2019-01-06T06:02:41.841Z,2.10
2019-01-06T06:05:15.572Z,1.97
2019-01-06T06:07:52.065Z,2.33
2019-01-06T06:10:25.997Z,2.50
2019-01-06T06:13:03.629Z,2.10
2019-01-06T06:15:43.134Z,2.30
2019-01-06T06:21:02.881Z,2.40
2019-01-06T06:23:39.485Z,2.40
2019-01-06T06:26:43.527Z,2.77
2019-01-06T06:29:23.120Z,2.67
2019-01-06T06:31:56.778Z,2.77
2019-01-06T06:34:30.384Z,2.13
2019-01-06T06:40:07.212Z,2.23
2019-01-06T06:42:39.825Z,2.47
2019-01-06T06:46:18.272Z,1.93
2019-01-06T06:48:54.889Z,2.00
2019-01-06T06:51:29.568Z,2.40
2019-01-06T06:54:03.265Z,2.27
2019-01-06T06:59:23.234Z,2.23
2019-01-06T07:02:17.262Z,2.60
2019-01-06T07:04:55.984Z,2.20
2019-01-06T07:07:29.542Z,2.40
2019-01-06T07:10:17.298Z,2.40
2019-01-06T07:13:22.391Z,2.53
2019-01-06T07:15:58.985Z,2.30
2019-01-06T07:18:32.801Z,2.30
2019-01-06T07:22:07.377Z,1.80
2019-01-06T07:24:37.963Z,2.50
2019-01-06T07:27:11.837Z,2.47
2019-01-06T07:33:44.213Z,3.27
2019-01-06T07:36:23.757Z,2.00
2019-01-06T07:39:01.381Z,2.30
2019-01-06T07:42:03.528Z,2.00
2019-01-06T07:44:44.240Z,3.03
2019-01-06T07:47:48.109Z,1.97
2019-01-06T07:50:20.847Z,2.53
2019-01-06T07:53:00.498Z,2.30
2019-01-06T07:55:34.205Z,1.87
2019-01-06T07:58:13.877Z,2.20
2019-01-06T08:00:53.406Z,2.63
2019-01-06T08:06:27.260Z,2.07
2019-01-06T08:09:00.771Z,2.70
2019-01-06T08:11:34.569Z,2.27
2019-01-06T08:15:08.808Z,2.70
2019-01-06T08:17:42.696Z,2.50
2019-01-06T08:21:18.184Z,2.63
2019-01-06T08:23:52.677Z,2.40
2019-01-06T08:28:34.182Z,3.10
2019-01-06T08:32:06.732Z,3.47
2019-01-06T08:34:40.530Z,2.87
2019-01-06T08:38:11.977Z,2.67
2019-01-06T08:42:52.859Z,3.40
2019-01-06T08:46:28.328Z,2.77
2019-01-06T08:49:01.961Z,3.50
2019-01-06T08:51:35.761Z,3.87
2019-01-06T08:54:09.491Z,3.37
2019-01-06T08:57:41.103Z,2.63
2019-01-06T09:00:14.868Z,4.65
2019-01-06T09:02:48.458Z,3.40
2019-01-06T09:05:24.111Z,3.73
2019-01-06T09:09:02.049Z,4.03
2019-01-06T09:11:35.949Z,3.17
2019-01-06T09:14:09.582Z,3.80
2019-01-06T09:16:48.099Z,4.50
2019-01-06T09:19:21.852Z,3.63
2019-01-06T09:21:55.610Z,3.83
2019-01-06T09:24:29.499Z,4.07
2019-01-06T09:27:03.292Z,4.13
2019-01-06T09:35:31.073Z,5.10
2019-01-06T09:38:06.897Z,4.07
2019-01-06T09:41:46.448Z,3.67
2019-01-06T09:44:23.932Z,3.90
2019-01-06T09:47:00.436Z,3.83
2019-01-06T09:49:34.179Z,4.47
2019-01-06T09:54:12.504Z,4.17
2019-01-06T09:56:45.972Z,5.20
2019-01-06T09:59:19.604Z,5.30
2019-01-06T10:01:53.345Z,3.67
2019-01-06T10:06:32.669Z,4.97
2019-01-06T10:09:11.165Z,4.95
2019-01-06T10:13:51.507Z,5.77
2019-01-06T10:16:31.112Z,4.07
2019-01-06T10:19:04.890Z,4.13
2019-01-06T10:21:54.741Z,4.33
2019-01-06T10:24:32.393Z,4.17
2019-01-06T10:27:05.965Z,4.00
2019-01-06T10:29:43.463Z,4.03
2019-01-06T10:32:17.155Z,3.87
2019-01-06T10:34:55.828Z,4.17
2019-01-06T10:37:33.293Z,3.93
2019-01-06T10:40:14.830Z,2.83
2019-01-06T10:42:48.513Z,3.50
2019-01-06T10:45:25.026Z,4.43
2019-01-06T10:49:04.382Z,4.43
2019-01-06T10:51:38.017Z,3.67
2019-01-06T10:54:11.529Z,3.87
2019-01-06T10:56:45.120Z,3.70
2019-01-06T10:59:51.059Z,3.90
2019-01-06T11:02:29.552Z,4.93
2019-01-06T11:05:02.582Z,4.47
2019-01-06T11:07:39.170Z,3.10
2019-01-06T11:10:14.354Z,3.27
2019-01-06T11:12:48.961Z,2.80
2019-01-06T11:15:26.613Z,2.87
2019-01-06T11:18:01.257Z,2.83
2019-01-06T11:20:34.855Z,3.77
2019-01-06T11:23:12.566Z,3.30
2019-01-06T11:25:46.296Z,4.03
2019-01-06T11:29:18.599Z,3.63
2019-01-06T11:31:52.434Z,3.93
2019-01-06T11:34:26.130Z,4.07
2019-01-06T11:41:58.234Z,3.73
2019-01-06T11:47:36.469Z,3.97
2019-01-06T12:21:30.431Z,5.37
2019-01-06T12:24:03.916Z,6.43
2019-01-06T12:26:40.249Z,5.73
2019-01-06T12:29:13.737Z,6.53
2019-01-06T12:33:53.043Z,6.80
2019-01-06T12:36:27.347Z,6.90
2019-01-06T12:39:06.779Z,6.37
2019-01-06T12:42:39.843Z,5.37
2019-01-06T12:45:33.444Z,5.87
2019-01-06T12:48:06.942Z,6.47
2019-01-06T12:50:46.281Z,6.87
2019-01-06T12:53:19.564Z,7.00
2019-01-06T12:57:55.841Z,6.57
2019-01-06T13:01:27.202Z,5.83
2019-01-06T13:04:03.617Z,5.60
2019-01-06T13:07:39.720Z,5.10
2019-01-06T13:10:13.260Z,5.43
2019-01-06T13:12:48.063Z,6.53
2019-01-06T13:15:21.690Z,5.97
2019-01-06T13:20:03.897Z,6.83
2019-01-06T13:22:37.419Z,5.60
2019-01-06T13:26:14.654Z,5.83
2019-01-06T13:28:48.225Z,6.50
2019-01-06T13:31:21.721Z,5.70
2019-01-06T13:33:55.384Z,5.63
2019-01-06T13:36:33.846Z,5.17
2019-01-06T13:45:03.479Z,5.70
2019-01-06T13:48:06.469Z,5.30
2019-01-06T13:50:46.087Z,5.50
2019-01-06T13:54:20.481Z,5.30
2019-01-06T13:58:56.864Z,5.63
2019-01-06T14:02:32.325Z,5.27
2019-01-06T14:05:26.078Z,5.50
2019-01-06T14:07:59.870Z,5.27
2019-01-06T14:10:36.374Z,6.20
2019-01-06T14:13:18.081Z,5.03
2019-01-06T14:15:51.753Z,5.17
2019-01-06T14:18:43.569Z,5.70
2019-01-06T14:21:19.055Z,5.77
2019-01-06T14:23:52.668Z,5.10
2019-01-06T14:26:29.302Z,4.97
2019-01-06T14:29:07.846Z,5.60
2019-01-06T14:33:44.802Z,5.40
2019-01-06T14:36:18.568Z,4.53
2019-01-06T14:38:52.350Z,5.77
2019-01-06T14:41:26.869Z,5.37
2019-01-06T14:44:00.522Z,5.33
2019-01-06T14:46:34.307Z,5.90
2019-01-06T14:49:10.892Z,6.00
2019-01-06T14:51:44.648Z,6.50
2019-01-06T14:54:23.163Z,5.63
2019-01-06T14:57:58.402Z,5.23
2019-01-06T15:00:34.022Z,5.93
2019-01-06T15:05:11.279Z,5.20
2019-01-06T15:07:45.184Z,5.77
2019-01-06T15:10:19.480Z,7.97
2019-01-06T15:12:53.179Z,7.10
2019-01-06T15:15:27.054Z,6.43
2019-01-06T15:19:04.456Z,7.23
2019-01-06T15:21:40.145Z,6.53
2019-01-06T15:24:17.769Z,6.27
2019-01-06T15:26:50.399Z,5.67
2019-01-06T15:29:26.885Z,6.53
2019-01-06T15:32:00.570Z,6.03
2019-01-06T15:34:34.233Z,6.53
2019-01-06T15:39:15.526Z,6.10
2019-01-06T15:41:49.199Z,5.07
2019-01-06T15:45:28.709Z,6.00
2019-01-06T15:48:05.214Z,7.00
2019-01-06T15:50:39.045Z,8.70
2019-01-06T15:54:12.518Z,7.70
2019-01-06T15:57:54.676Z,6.90
2019-01-06T16:00:28.539Z,5.70
2019-01-06T16:03:06.134Z,5.07
2019-01-06T16:05:41.525Z,5.37
2019-01-06T16:09:18.704Z,6.23
2019-01-06T16:12:58.478Z,6.37
2019-01-06T16:15:32.324Z,5.77
2019-01-06T16:18:06.222Z,5.63
2019-01-06T16:22:45.650Z,6.17
2019-01-06T16:25:27.341Z,5.67
2019-01-06T16:28:58.486Z,5.67
2019-01-06T16:32:35.002Z,5.37
2019-01-06T16:35:11.664Z,6.77
2019-01-06T16:37:45.340Z,5.93
2019-01-06T16:40:24.877Z,7.00
2019-01-06T16:42:58.501Z,6.50
2019-01-06T16:46:01.506Z,6.27
2019-01-06T16:48:43.477Z,7.07
2019-01-06T16:51:17.325Z,7.37
2019-01-06T16:53:51.069Z,8.03
2019-01-06T16:56:24.806Z,8.50
2019-01-06T17:01:01.007Z,9.13
2019-01-06T17:03:34.906Z,7.00
2019-01-06T17:06:08.370Z,8.10
2019-01-06T17:09:44.997Z,8.03
2019-01-06T17:13:16.323Z,6.73
2019-01-06T17:17:57.759Z,10.63
2019-01-06T17:22:34.001Z,11.20
2019-01-06T17:25:07.816Z,8.50
2019-01-06T17:28:42.315Z,7.87
2019-01-06T17:31:17.027Z,9.47
2019-01-06T17:33:53.497Z,11.80
2019-01-06T17:36:27.277Z,11.23
2019-01-06T17:41:07.590Z,12.50
2019-01-06T17:44:13.637Z,12.10
2019-01-06T17:46:53.330Z,12.27
2019-01-06T17:49:25.976Z,10.53
2019-01-06T17:52:07.581Z,9.53
2019-01-06T17:55:11.723Z,8.17
2019-01-06T17:58:49.092Z,10.43
2019-01-06T18:01:22.908Z,7.97
2019-01-06T18:04:03.473Z,8.20
2019-01-06T18:06:38.991Z,8.77
2019-01-06T18:12:03.157Z,8.17
2019-01-06T18:14:42.842Z,9.80
2019-01-06T18:18:18.408Z,9.50
2019-01-06T18:21:53.809Z,9.37
2019-01-06T18:24:33.337Z,9.93
2019-01-06T18:27:07.081Z,9.27
2019-01-06T18:29:43.598Z,9.83
2019-01-06T18:34:20.912Z,8.63
2019-01-06T18:36:54.762Z,8.60
2019-01-06T18:39:58.755Z,9.53
2019-01-06T18:42:32.538Z,9.57
2019-01-06T18:45:24.364Z,9.93
2019-01-06T18:48:56.933Z,9.90
2019-01-06T18:51:33.505Z,10.23
2019-01-06T18:54:06.161Z,11.67
2019-01-06T18:58:45.382Z,9.90
2019-01-06T19:01:19.141Z,10.03
2019-01-06T19:03:52.726Z,9.87
2019-01-06T19:06:58.705Z,11.00
2019-01-06T19:17:57.644Z,10.60
2019-01-06T19:23:22.486Z,12.87
2019-01-06T19:25:56.236Z,12.47
2019-01-06T19:28:29.736Z,12.77
2019-01-06T19:32:01.988Z,13.70
2019-01-06T19:34:35.808Z,14.80
2019-01-06T19:37:09.769Z,15.97
2019-01-06T19:39:43.456Z,13.97
2019-01-06T19:42:19.505Z,14.73
2019-01-06T19:47:00.617Z,15.60
2019-01-06T19:49:40.571Z,16.63
2019-01-06T19:52:13.759Z,15.83
2019-01-06T19:54:49.549Z,15.27
2019-01-06T19:57:22.405Z,15.53
2019-01-06T20:00:12.127Z,15.90
2019-01-06T20:02:49.725Z,17.50
2019-01-06T20:05:23.549Z,17.40
2019-01-06T20:07:59.151Z,16.53
2019-01-06T20:10:33.838Z,16.30
2019-01-06T20:13:09.213Z,16.83
2019-01-06T20:15:46.779Z,15.00
2019-01-06T20:18:27.547Z,15.67
2019-01-06T20:23:06.164Z,15.47
2019-01-06T20:25:55.083Z,15.83
2019-01-06T20:28:33.149Z,14.83
2019-01-06T20:31:07.035Z,16.03
2019-01-06T20:33:42.677Z,17.50
2019-01-06T20:36:15.311Z,16.07
2019-01-06T20:39:00.161Z,16.33
2019-01-06T20:42:34.389Z,16.60
2019-01-06T20:46:05.861Z,16.67
2019-01-06T20:48:39.641Z,16.20
2019-01-06T20:53:15.899Z,16.13
2019-01-06T20:57:54.503Z,14.93
2019-01-06T21:00:31.225Z,14.70
2019-01-06T21:03:05.069Z,13.83
2019-01-06T21:05:39.607Z,13.60
2019-01-06T21:08:13.266Z,14.27
2019-01-06T21:10:48.750Z,16.07
2019-01-06T21:13:22.422Z,14.30
2019-01-06T21:15:56.372Z,14.33
2019-01-06T21:18:36.947Z,15.33
2019-01-06T21:21:15.645Z,14.97
2019-01-06T21:23:49.358Z,15.53
2019-01-06T21:28:26.833Z,18.13
2019-01-06T21:30:59.507Z,15.03
2019-01-06T21:33:34.975Z,18.00
2019-01-06T21:36:12.474Z,20.10
2019-01-06T21:38:48.999Z,24.20
2019-01-06T21:41:21.602Z,22.83
2019-01-06T21:43:57.176Z,19.57
2019-01-06T21:46:31.047Z,19.53
2019-01-06T21:49:03.665Z,18.73
2019-01-06T21:51:36.336Z,20.47
2019-01-06T21:54:10.144Z,22.90
2019-01-06T21:59:29.141Z,21.07
2019-01-06T22:02:03.541Z,20.00
2019-01-06T22:05:38.112Z,18.73
2019-01-06T22:10:18.523Z,17.90
2019-01-06T22:13:04.102Z,19.43
2019-01-06T22:15:40.628Z,19.53
2019-01-06T22:18:24.225Z,20.30
2019-01-06T22:20:58.730Z,19.40
2019-01-06T22:23:48.491Z,21.47
2019-01-06T22:29:46.546Z,19.97
2019-01-06T22:32:19.205Z,20.03
2019-01-06T22:34:57.797Z,18.23
2019-01-06T22:37:33.403Z,17.23
2019-01-06T22:40:07.073Z,18.40
2019-01-06T22:42:43.688Z,18.97
2019-01-06T22:45:32.691Z,20.43
2019-01-06T22:48:06.374Z,17.73
2019-01-06T22:50:40.219Z,16.43
2019-01-06T22:53:17.717Z,18.50
2019-01-06T23:00:28.767Z,18.27
2019-01-06T23:03:02.401Z,16.57
2019-01-06T23:05:38.970Z,18.23
2019-01-06T23:08:12.661Z,17.90
2019-01-06T23:10:46.558Z,17.63
2019-01-06T23:13:24.123Z,19.53
2019-01-06T23:16:02.850Z,18.83
2019-01-06T23:18:45.594Z,18.30
2019-01-06T23:21:19.435Z,16.97
2019-01-06T23:25:59.333Z,17.00
2019-01-06T23:28:33.127Z,16.73
2019-01-06T23:32:04.583Z,15.77
2019-01-06T23:34:38.141Z,16.57
2019-01-06T23:38:15.416Z,16.63
2019-01-06T23:41:03.036Z,17.67
2019-01-06T23:43:36.937Z,18.83
2019-01-06T23:46:10.666Z,16.80
2019-01-06T23:48:45.075Z,18.03
2019-01-06T23:51:17.708Z,16.83
2019-01-06T23:53:51.512Z,17.83
2019-01-06T23:56:31.235Z,16.70
